sensor_id;sensor_type;location;lat;lon;timestamp;P1;P2;P0
77538;PMS7003;67783;51.656;16.106;2024-03-22T00:01:18;4;3;3
77538;PMS7003;67783;51.656;16.106;2024-03-22T00:04:20;3;2;2
77538;PMS7003;67783;51.656;16.106;2024-03-22T00:07:22;3;2;1
77538;PMS7003;67783;51.656;16.106;2024-03-22T00:10:27;3;2;2
77538;PMS7003;67783;51.656;16.106;2024-03-22T00:13:28;4;2;1
77538;PMS7003;67783;51.656;16.106;2024-03-22T00:16:29;2;2;1
77538;PMS7003;67783;51.656;16.106;2024-03-22T00:19:31;2;2;1
77538;PMS7003;67783;51.656;16.106;2024-03-22T00:22:32;1;1;1
77538;PMS7003;67783;51.656;16.106;2024-03-22T00:25:34;2;2;1
77538;PMS7003;67783;51.656;16.106;2024-03-22T00:28:35;2;2;2
77538;PMS7003;67783;51.656;16.106;2024-03-22T00:31:41;2;2;1
77538;PMS7003;67783;51.656;16.106;2024-03-22T00:34:43;2;2;1
77538;PMS7003;67783;51.656;16.106;2024-03-22T00:37:45;2;2;1
77538;PMS7003;67783;51.656;16.106;2024-03-22T00:40:47;6;3;1
77538;PMS7003;67783;51.656;16.106;2024-03-22T00:43:48;1;1;1
77538;PMS7003;67783;51.656;16.106;2024-03-22T00:46:50;2;1;1
77538;PMS7003;67783;51.656;16.106;2024-03-22T00:49:51;1;1;1
77538;PMS7003;67783;51.656;16.106;2024-03-22T00:52:56;4;3;2
77538;PMS7003;67783;51.656;16.106;2024-03-22T00:55:58;4;4;2
77538;PMS7003;67783;51.656;16.106;2024-03-22T00:59:00;4;3;2
77538;PMS7003;67783;51.656;16.106;2024-03-22T01:02:01;3;3;2
77538;PMS7003;67783;51.656;16.106;2024-03-22T01:05:03;4;2;2
77538;PMS7003;67783;51.656;16.106;2024-03-22T01:08:05;5;4;2
77538;PMS7003;67783;51.656;16.106;2024-03-22T01:11:07;4;3;2
77538;PMS7003;67783;51.656;16.106;2024-03-22T01:14:12;8;5;3
77538;PMS7003;67783;51.656;16.106;2024-03-22T01:17:13;3;3;2
77538;PMS7003;67783;51.656;16.106;2024-03-22T01:20:15;9;2;1
77538;PMS7003;67783;51.656;16.106;2024-03-22T01:23:17;9;4;3
77538;PMS7003;67783;51.656;16.106;2024-03-22T01:26:19;0;0;0
77538;PMS7003;67783;51.656;16.106;2024-03-22T01:29:21;2;2;2
77538;PMS7003;67783;51.656;16.106;2024-03-22T01:32:22;4;3;2
77538;PMS7003;67783;51.656;16.106;2024-03-22T01:35:27;2;2;2
77538;PMS7003;67783;51.656;16.106;2024-03-22T01:38:29;3;1;1
77538;PMS7003;67783;51.656;16.106;2024-03-22T01:41:30;5;3;2
77538;PMS7003;67783;51.656;16.106;2024-03-22T01:44:32;5;3;2
77538;PMS7003;67783;51.656;16.106;2024-03-22T01:47:33;2;2;2
77538;PMS7003;67783;51.656;16.106;2024-03-22T01:50:35;4;4;2
77538;PMS7003;67783;51.656;16.106;2024-03-22T01:53:37;5;5;3
77538;PMS7003;67783;51.656;16.106;2024-03-22T01:56:42;0;0;0
77538;PMS7003;67783;51.656;16.106;2024-03-22T01:59:45;3;3;2
77538;PMS7003;67783;51.656;16.106;2024-03-22T02:02:50;3;2;2
77538;PMS7003;67783;51.656;16.106;2024-03-22T02:05:51;5;4;2
77538;PMS7003;67783;51.656;16.106;2024-03-22T02:08:54;5;2;1
77538;PMS7003;67783;51.656;16.106;2024-03-22T02:12:03;2;2;1
77538;PMS7003;67783;51.656;16.106;2024-03-22T02:15:05;6;2;2
77538;PMS7003;67783;51.656;16.106;2024-03-22T02:18:10;4;3;2
77538;PMS7003;67783;51.656;16.106;2024-03-22T02:21:11;2;2;1
77538;PMS7003;67783;51.656;16.106;2024-03-22T02:24:13;2;2;2
77538;PMS7003;67783;51.656;16.106;2024-03-22T02:27:24;2;1;1
77538;PMS7003;67783;51.656;16.106;2024-03-22T02:30:26;2;2;2
77538;PMS7003;67783;51.656;16.106;2024-03-22T02:33:28;2;2;1
77538;PMS7003;67783;51.656;16.106;2024-03-22T02:36:30;3;2;2
77538;PMS7003;67783;51.656;16.106;2024-03-22T02:39:31;2;2;2
77538;PMS7003;67783;51.656;16.106;2024-03-22T02:42:33;1;1;0
77538;PMS7003;67783;51.656;16.106;2024-03-22T02:45:34;3;1;1
77538;PMS7003;67783;51.656;16.106;2024-03-22T02:48:39;2;1;1
77538;PMS7003;67783;51.656;16.106;2024-03-22T02:51:41;2;2;2
77538;PMS7003;67783;51.656;16.106;2024-03-22T02:54:42;1;1;1
77538;PMS7003;67783;51.656;16.106;2024-03-22T02:57:44;3;3;2
77538;PMS7003;67783;51.656;16.106;2024-03-22T03:00:46;2;2;1
77538;PMS7003;67783;51.656;16.106;2024-03-22T03:03:47;2;1;0
77538;PMS7003;67783;51.656;16.106;2024-03-22T03:06:49;3;1;1
77538;PMS7003;67783;51.656;16.106;2024-03-22T03:09:54;3;3;2
77538;PMS7003;67783;51.656;16.106;2024-03-22T03:12:55;2;2;2
77538;PMS7003;67783;51.656;16.106;2024-03-22T03:15:57;2;2;1
77538;PMS7003;67783;51.656;16.106;2024-03-22T03:18:59;1;1;1
77538;PMS7003;67783;51.656;16.106;2024-03-22T03:22:00;2;2;1
77538;PMS7003;67783;51.656;16.106;2024-03-22T03:25:03;5;3;3
77538;PMS7003;67783;51.656;16.106;2024-03-22T03:28:05;5;3;2
77538;PMS7003;67783;51.656;16.106;2024-03-22T03:31:10;5;5;4
77538;PMS7003;67783;51.656;16.106;2024-03-22T03:34:11;5;4;2
77538;PMS7003;67783;51.656;16.106;2024-03-22T03:37:13;3;3;2
77538;PMS7003;67783;51.656;16.106;2024-03-22T03:40:15;6;3;2
77538;PMS7003;67783;51.656;16.106;2024-03-22T03:43:16;5;4;3
77538;PMS7003;67783;51.656;16.106;2024-03-22T03:46:18;7;6;4
77538;PMS7003;67783;51.656;16.106;2024-03-22T03:49:19;7;7;4
77538;PMS7003;67783;51.656;16.106;2024-03-22T03:52:25;6;5;3
77538;PMS7003;67783;51.656;16.106;2024-03-22T03:55:26;7;4;3
77538;PMS7003;67783;51.656;16.106;2024-03-22T03:58:27;11;7;4
77538;PMS7003;67783;51.656;16.106;2024-03-22T04:01:29;8;7;4
77538;PMS7003;67783;51.656;16.106;2024-03-22T04:04:30;7;5;4
77538;PMS7003;67783;51.656;16.106;2024-03-22T04:07:32;13;7;5
77538;PMS7003;67783;51.656;16.106;2024-03-22T04:10:33;10;7;5
77538;PMS7003;67783;51.656;16.106;2024-03-22T04:13:39;11;9;5
77538;PMS7003;67783;51.656;16.106;2024-03-22T04:16:41;10;7;4
77538;PMS7003;67783;51.656;16.106;2024-03-22T04:19:42;8;7;3
77538;PMS7003;67783;51.656;16.106;2024-03-22T04:22:44;5;5;2
77538;PMS7003;67783;51.656;16.106;2024-03-22T04:29:00;6;6;4
77538;PMS7003;67783;51.656;16.106;2024-03-22T04:32:01;7;7;4
77538;PMS7003;67783;51.656;16.106;2024-03-22T04:35:03;5;3;3
77538;PMS7003;67783;51.656;16.106;2024-03-22T04:38:06;6;4;3
77538;PMS7003;67783;51.656;16.106;2024-03-22T04:41:07;6;5;3
77538;PMS7003;67783;51.656;16.106;2024-03-22T04:44:20;5;5;2
77538;PMS7003;67783;51.656;16.106;2024-03-22T04:47:22;7;6;5
77538;PMS7003;67783;51.656;16.106;2024-03-22T04:50:23;6;5;3
77538;PMS7003;67783;51.656;16.106;2024-03-22T04:53:24;7;7;6
77538;PMS7003;67783;51.656;16.106;2024-03-22T04:56:26;7;4;2
77538;PMS7003;67783;51.656;16.106;2024-03-22T04:59:27;6;6;4
77538;PMS7003;67783;51.656;16.106;2024-03-22T05:02:29;5;4;3
77538;PMS7003;67783;51.656;16.106;2024-03-22T05:05:35;4;4;3
77538;PMS7003;67783;51.656;16.106;2024-03-22T05:08:37;6;5;3
77538;PMS7003;67783;51.656;16.106;2024-03-22T05:11:38;15;6;5
77538;PMS7003;67783;51.656;16.106;2024-03-22T05:14:40;11;7;5
77538;PMS7003;67783;51.656;16.106;2024-03-22T05:17:41;7;6;5
77538;PMS7003;67783;51.656;16.106;2024-03-22T05:20:44;12;6;4
77538;PMS7003;67783;51.656;16.106;2024-03-22T05:23:45;9;7;5
77538;PMS7003;67783;51.656;16.106;2024-03-22T05:26:50;5;5;2
77538;PMS7003;67783;51.656;16.106;2024-03-22T05:29:51;4;4;3
77538;PMS7003;67783;51.656;16.106;2024-03-22T05:32:53;9;5;3
77538;PMS7003;67783;51.656;16.106;2024-03-22T05:35:55;6;5;3
77538;PMS7003;67783;51.656;16.106;2024-03-22T05:38:56;9;7;4
77538;PMS7003;67783;51.656;16.106;2024-03-22T05:41:57;6;5;4
77538;PMS7003;67783;51.656;16.106;2024-03-22T05:44:59;11;5;3
77538;PMS7003;67783;51.656;16.106;2024-03-22T05:48:05;7;6;4
77538;PMS7003;67783;51.656;16.106;2024-03-22T05:51:07;4;4;3
77538;PMS7003;67783;51.656;16.106;2024-03-22T05:54:09;5;4;3
77538;PMS7003;67783;51.656;16.106;2024-03-22T05:57:11;8;4;3
77538;PMS7003;67783;51.656;16.106;2024-03-22T06:00:12;10;9;5
77538;PMS7003;67783;51.656;16.106;2024-03-22T06:03:14;7;5;3
77538;PMS7003;67783;51.656;16.106;2024-03-22T06:06:15;7;6;3
77538;PMS7003;67783;51.656;16.106;2024-03-22T06:09:20;5;5;4
77538;PMS7003;67783;51.656;16.106;2024-03-22T06:12:35;3;3;2
77538;PMS7003;67783;51.656;16.106;2024-03-22T06:15:37;6;4;3
77538;PMS7003;67783;51.656;16.106;2024-03-22T06:18:47;7;6;4
77538;PMS7003;67783;51.656;16.106;2024-03-22T06:21:49;5;5;3
77538;PMS7003;67783;51.656;16.106;2024-03-22T06:24:50;9;6;3
77538;PMS7003;67783;51.656;16.106;2024-03-22T06:27:51;5;5;3
77538;PMS7003;67783;51.656;16.106;2024-03-22T06:30:53;9;5;4
77538;PMS7003;67783;51.656;16.106;2024-03-22T06:33:54;5;5;4
77538;PMS7003;67783;51.656;16.106;2024-03-22T06:37:02;3;3;1
77538;PMS7003;67783;51.656;16.106;2024-03-22T06:40:08;7;6;3
77538;PMS7003;67783;51.656;16.106;2024-03-22T06:43:10;4;3;3
77538;PMS7003;67783;51.656;16.106;2024-03-22T06:46:11;4;4;3
77538;PMS7003;67783;51.656;16.106;2024-03-22T06:49:16;9;6;5
77538;PMS7003;67783;51.656;16.106;2024-03-22T06:52:18;8;7;4
77538;PMS7003;67783;51.656;16.106;2024-03-22T06:55:28;9;6;4
77538;PMS7003;67783;51.656;16.106;2024-03-22T06:58:29;14;6;3
77538;PMS7003;67783;51.656;16.106;2024-03-22T07:01:31;9;5;4
77538;PMS7003;67783;51.656;16.106;2024-03-22T07:04:32;6;5;4
77538;PMS7003;67783;51.656;16.106;2024-03-22T07:07:34;4;4;2
77538;PMS7003;67783;51.656;16.106;2024-03-22T07:10:38;6;6;3
77538;PMS7003;67783;51.656;16.106;2024-03-22T07:13:40;6;5;3
77538;PMS7003;67783;51.656;16.106;2024-03-22T07:16:45;5;3;2
77538;PMS7003;67783;51.656;16.106;2024-03-22T07:19:46;6;4;3
77538;PMS7003;67783;51.656;16.106;2024-03-22T07:22:47;6;6;4
77538;PMS7003;67783;51.656;16.106;2024-03-22T07:25:49;5;3;3
77538;PMS7003;67783;51.656;16.106;2024-03-22T07:28:50;4;4;2
77538;PMS7003;67783;51.656;16.106;2024-03-22T07:31:52;6;5;3
77538;PMS7003;67783;51.656;16.106;2024-03-22T07:34:53;11;8;6
77538;PMS7003;67783;51.656;16.106;2024-03-22T07:37:59;10;4;3
77538;PMS7003;67783;51.656;16.106;2024-03-22T07:41:01;7;7;4
77538;PMS7003;67783;51.656;16.106;2024-03-22T07:44:02;6;4;2
77538;PMS7003;67783;51.656;16.106;2024-03-22T07:47:05;5;5;3
77538;PMS7003;67783;51.656;16.106;2024-03-22T07:50:07;4;4;3
77538;PMS7003;67783;51.656;16.106;2024-03-22T07:53:09;5;4;3
77538;PMS7003;67783;51.656;16.106;2024-03-22T07:56:10;7;5;4
77538;PMS7003;67783;51.656;16.106;2024-03-22T07:59:15;5;5;4
77538;PMS7003;67783;51.656;16.106;2024-03-22T08:02:17;6;4;2
77538;PMS7003;67783;51.656;16.106;2024-03-22T08:05:18;5;5;4
77538;PMS7003;67783;51.656;16.106;2024-03-22T08:08:23;8;6;3
77538;PMS7003;67783;51.656;16.106;2024-03-22T08:11:24;5;4;3
77538;PMS7003;67783;51.656;16.106;2024-03-22T08:14:36;3;3;2
77538;PMS7003;67783;51.656;16.106;2024-03-22T08:17:37;5;4;3
77538;PMS7003;67783;51.656;16.106;2024-03-22T08:20:39;5;4;4
77538;PMS7003;67783;51.656;16.106;2024-03-22T08:23:40;10;6;4
77538;PMS7003;67783;51.656;16.106;2024-03-22T08:26:42;6;5;2
77538;PMS7003;67783;51.656;16.106;2024-03-22T08:29:57;5;4;3
77538;PMS7003;67783;51.656;16.106;2024-03-22T08:32:58;11;5;4
77538;PMS7003;67783;51.656;16.106;2024-03-22T08:35:59;8;6;4
77538;PMS7003;67783;51.656;16.106;2024-03-22T08:39:01;8;8;5
77538;PMS7003;67783;51.656;16.106;2024-03-22T08:42:03;6;6;4
77538;PMS7003;67783;51.656;16.106;2024-03-22T08:45:07;5;4;3
77538;PMS7003;67783;51.656;16.106;2024-03-22T08:48:09;9;7;4
77538;PMS7003;67783;51.656;16.106;2024-03-22T08:51:14;9;5;3
77538;PMS7003;67783;51.656;16.106;2024-03-22T08:54:15;6;5;3
77538;PMS7003;67783;51.656;16.106;2024-03-22T08:57:16;4;4;3
77538;PMS7003;67783;51.656;16.106;2024-03-22T09:00:18;9;3;3
77538;PMS7003;67783;51.656;16.106;2024-03-22T09:03:20;6;6;3
77538;PMS7003;67783;51.656;16.106;2024-03-22T09:06:22;6;6;4
77538;PMS7003;67783;51.656;16.106;2024-03-22T09:09:23;3;3;2
77538;PMS7003;67783;51.656;16.106;2024-03-22T09:12:28;5;4;3
77538;PMS7003;67783;51.656;16.106;2024-03-22T09:15:30;5;5;3
77538;PMS7003;67783;51.656;16.106;2024-03-22T09:18:32;6;5;3
77538;PMS7003;67783;51.656;16.106;2024-03-22T09:21:34;4;3;2
77538;PMS7003;67783;51.656;16.106;2024-03-22T09:24:35;11;8;4
77538;PMS7003;67783;51.656;16.106;2024-03-22T09:27:37;4;3;2
77538;PMS7003;67783;51.656;16.106;2024-03-22T09:30:38;9;5;4
77538;PMS7003;67783;51.656;16.106;2024-03-22T09:33:43;10;5;4
77538;PMS7003;67783;51.656;16.106;2024-03-22T09:36:45;5;5;4
77538;PMS7003;67783;51.656;16.106;2024-03-22T09:39:46;5;4;2
77538;PMS7003;67783;51.656;16.106;2024-03-22T09:42:48;5;5;3
77538;PMS7003;67783;51.656;16.106;2024-03-22T09:45:54;2;2;2
77538;PMS7003;67783;51.656;16.106;2024-03-22T09:49:04;12;7;4
77538;PMS7003;67783;51.656;16.106;2024-03-22T09:52:06;6;4;3
77538;PMS7003;67783;51.656;16.106;2024-03-22T09:55:08;6;4;3
77538;PMS7003;67783;51.656;16.106;2024-03-22T09:58:10;5;4;3
77538;PMS7003;67783;51.656;16.106;2024-03-22T10:01:11;4;4;3
77538;PMS7003;67783;51.656;16.106;2024-03-22T10:04:24;3;3;2
77538;PMS7003;67783;51.656;16.106;2024-03-22T10:07:26;6;6;3
77538;PMS7003;67783;51.656;16.106;2024-03-22T10:10:28;5;4;2
77538;PMS7003;67783;51.656;16.106;2024-03-22T10:13:29;5;4;3
77538;PMS7003;67783;51.656;16.106;2024-03-22T10:16:36;4;3;2
77538;PMS7003;67783;51.656;16.106;2024-03-22T10:19:45;3;3;2
77538;PMS7003;67783;51.656;16.106;2024-03-22T10:22:54;3;3;2
77538;PMS7003;67783;51.656;16.106;2024-03-22T10:26:00;6;4;3
77538;PMS7003;67783;51.656;16.106;2024-03-22T10:29:11;3;2;2
77538;PMS7003;67783;51.656;16.106;2024-03-22T10:32:13;4;3;2
77538;PMS7003;67783;51.656;16.106;2024-03-22T10:35:16;4;2;2
77538;PMS7003;67783;51.656;16.106;2024-03-22T10:38:19;4;4;2
77538;PMS7003;67783;51.656;16.106;2024-03-22T10:41:21;6;5;3
77538;PMS7003;67783;51.656;16.106;2024-03-22T10:44:32;3;3;3
77538;PMS7003;67783;51.656;16.106;2024-03-22T10:47:33;1;1;1
77538;PMS7003;67783;51.656;16.106;2024-03-22T10:50:39;6;3;2
77538;PMS7003;67783;51.656;16.106;2024-03-22T10:53:43;2;2;2
77538;PMS7003;67783;51.656;16.106;2024-03-22T10:56:45;5;3;2
77538;PMS7003;67783;51.656;16.106;2024-03-22T10:59:54;2;2;1
77538;PMS7003;67783;51.656;16.106;2024-03-22T11:02:56;4;4;1
77538;PMS7003;67783;51.656;16.106;2024-03-22T11:05:58;2;2;1
77538;PMS7003;67783;51.656;16.106;2024-03-22T11:08:59;5;5;3
77538;PMS7003;67783;51.656;16.106;2024-03-22T11:12:08;3;3;2
77538;PMS7003;67783;51.656;16.106;2024-03-22T11:15:13;5;4;2
77538;PMS7003;67783;51.656;16.106;2024-03-22T11:18:14;2;2;1
77538;PMS7003;67783;51.656;16.106;2024-03-22T11:21:16;5;3;2
77538;PMS7003;67783;51.656;16.106;2024-03-22T11:24:18;8;4;4
77538;PMS7003;67783;51.656;16.106;2024-03-22T11:27:20;4;4;3
77538;PMS7003;67783;51.656;16.106;2024-03-22T11:30:23;4;4;2
77538;PMS7003;67783;51.656;16.106;2024-03-22T11:33:25;5;3;2
77538;PMS7003;67783;51.656;16.106;2024-03-22T11:36:30;2;2;2
77538;PMS7003;67783;51.656;16.106;2024-03-22T11:39:31;4;4;3
77538;PMS7003;67783;51.656;16.106;2024-03-22T11:42:36;5;3;2
77538;PMS7003;67783;51.656;16.106;2024-03-22T11:45:39;4;3;3
77538;PMS7003;67783;51.656;16.106;2024-03-22T11:48:41;5;5;3
77538;PMS7003;67783;51.656;16.106;2024-03-22T11:51:53;6;3;2
77538;PMS7003;67783;51.656;16.106;2024-03-22T11:54:57;8;5;3
77538;PMS7003;67783;51.656;16.106;2024-03-22T11:57:59;4;4;3
77538;PMS7003;67783;51.656;16.106;2024-03-22T12:01:00;3;3;2
77538;PMS7003;67783;51.656;16.106;2024-03-22T12:04:03;5;4;3
77538;PMS7003;67783;51.656;16.106;2024-03-22T12:07:14;3;3;1
77538;PMS7003;67783;51.656;16.106;2024-03-22T12:10:16;2;2;1
77538;PMS7003;67783;51.656;16.106;2024-03-22T12:13:18;3;3;2
77538;PMS7003;67783;51.656;16.106;2024-03-22T12:16:19;2;2;1
77538;PMS7003;67783;51.656;16.106;2024-03-22T12:19:20;6;5;4
77538;PMS7003;67783;51.656;16.106;2024-03-22T12:22:32;3;2;1
77538;PMS7003;67783;51.656;16.106;2024-03-22T12:25:33;5;2;2
77538;PMS7003;67783;51.656;16.106;2024-03-22T12:28:34;9;5;3
77538;PMS7003;67783;51.656;16.106;2024-03-22T12:31:39;3;3;2
77538;PMS7003;67783;51.656;16.106;2024-03-22T12:34:40;1;1;1
77538;PMS7003;67783;51.656;16.106;2024-03-22T12:37:52;3;3;2
77538;PMS7003;67783;51.656;16.106;2024-03-22T12:40:54;4;2;1
77538;PMS7003;67783;51.656;16.106;2024-03-22T12:43:55;5;5;4
77538;PMS7003;67783;51.656;16.106;2024-03-22T12:46:57;7;6;4
77538;PMS7003;67783;51.656;16.106;2024-03-22T12:49:59;3;3;2
77538;PMS7003;67783;51.656;16.106;2024-03-22T12:53:01;2;2;2
77538;PMS7003;67783;51.656;16.106;2024-03-22T12:56:02;5;4;3
77538;PMS7003;67783;51.656;16.106;2024-03-22T12:59:07;3;2;2
77538;PMS7003;67783;51.656;16.106;2024-03-22T13:02:08;4;4;2
77538;PMS7003;67783;51.656;16.106;2024-03-22T13:05:10;3;3;2
77538;PMS7003;67783;51.656;16.106;2024-03-22T13:08:11;4;4;3
77538;PMS7003;67783;51.656;16.106;2024-03-22T13:11:13;3;3;2
77538;PMS7003;67783;51.656;16.106;2024-03-22T13:14:15;5;4;3
77538;PMS7003;67783;51.656;16.106;2024-03-22T13:17:16;3;2;2
77538;PMS7003;67783;51.656;16.106;2024-03-22T13:20:22;4;3;2
77538;PMS7003;67783;51.656;16.106;2024-03-22T13:23:23;8;4;2
77538;PMS7003;67783;51.656;16.106;2024-03-22T13:26:24;2;2;2
77538;PMS7003;67783;51.656;16.106;2024-03-22T13:29:26;5;3;2
77538;PMS7003;67783;51.656;16.106;2024-03-22T13:32:27;2;1;1
77538;PMS7003;67783;51.656;16.106;2024-03-22T13:35:29;3;3;1
77538;PMS7003;67783;51.656;16.106;2024-03-22T13:38:31;3;3;2
77538;PMS7003;67783;51.656;16.106;2024-03-22T13:41:36;3;3;1
77538;PMS7003;67783;51.656;16.106;2024-03-22T13:44:38;3;3;2
77538;PMS7003;67783;51.656;16.106;2024-03-22T13:47:39;2;2;1
77538;PMS7003;67783;51.656;16.106;2024-03-22T13:50:41;1;1;1
77538;PMS7003;67783;51.656;16.106;2024-03-22T13:53:42;3;3;2
77538;PMS7003;67783;51.656;16.106;2024-03-22T13:56:43;1;1;1
77538;PMS7003;67783;51.656;16.106;2024-03-22T13:59:45;2;2;2
77538;PMS7003;67783;51.656;16.106;2024-03-22T14:02:51;3;3;3
77538;PMS7003;67783;51.656;16.106;2024-03-22T14:05:57;3;2;2
77538;PMS7003;67783;51.656;16.106;2024-03-22T14:08:58;2;2;1
77538;PMS7003;67783;51.656;16.106;2024-03-22T14:12:05;2;2;1
77538;PMS7003;67783;51.656;16.106;2024-03-22T14:15:07;2;2;1
77538;PMS7003;67783;51.656;16.106;2024-03-22T14:18:12;3;1;1
77538;PMS7003;67783;51.656;16.106;2024-03-22T14:21:13;1;1;1
77538;PMS7003;67783;51.656;16.106;2024-03-22T14:24:20;2;2;1
77538;PMS7003;67783;51.656;16.106;2024-03-22T14:27:21;2;2;1
77538;PMS7003;67783;51.656;16.106;2024-03-22T14:30:23;6;3;2
77538;PMS7003;67783;51.656;16.106;2024-03-22T14:33:33;3;3;1
77538;PMS7003;67783;51.656;16.106;2024-03-22T14:36:34;5;1;1
77538;PMS7003;67783;51.656;16.106;2024-03-22T14:39:36;2;2;2
77538;PMS7003;67783;51.656;16.106;2024-03-22T14:42:38;3;3;1
77538;PMS7003;67783;51.656;16.106;2024-03-22T14:45:40;2;2;0
77538;PMS7003;67783;51.656;16.106;2024-03-22T14:48:42;3;3;2
77538;PMS7003;67783;51.656;16.106;2024-03-22T14:51:44;2;2;1
77538;PMS7003;67783;51.656;16.106;2024-03-22T14:54:51;5;5;4
77538;PMS7003;67783;51.656;16.106;2024-03-22T14:57:53;6;3;2
77538;PMS7003;67783;51.656;16.106;2024-03-22T15:00:55;3;3;2
77538;PMS7003;67783;51.656;16.106;2024-03-22T15:03:57;2;0;0
77538;PMS7003;67783;51.656;16.106;2024-03-22T15:06:59;5;3;2
77538;PMS7003;67783;51.656;16.106;2024-03-22T15:10:09;4;2;1
77538;PMS7003;67783;51.656;16.106;2024-03-22T15:13:11;2;2;2
77538;PMS7003;67783;51.656;16.106;2024-03-22T15:16:14;6;4;3
77538;PMS7003;67783;51.656;16.106;2024-03-22T15:19:15;3;3;3
77538;PMS7003;67783;51.656;16.106;2024-03-22T15:22:16;2;2;1
77538;PMS7003;67783;51.656;16.106;2024-03-22T15:25:30;4;4;3
77538;PMS7003;67783;51.656;16.106;2024-03-22T15:28:32;4;3;2
77538;PMS7003;67783;51.656;16.106;2024-03-22T15:31:34;5;4;2
77538;PMS7003;67783;51.656;16.106;2024-03-22T15:34:36;4;4;3
77538;PMS7003;67783;51.656;16.106;2024-03-22T15:37:37;1;1;1
77538;PMS7003;67783;51.656;16.106;2024-03-22T15:40:39;1;1;1
77538;PMS7003;67783;51.656;16.106;2024-03-22T15:43:41;4;2;2
77538;PMS7003;67783;51.656;16.106;2024-03-22T15:46:45;2;2;1
77538;PMS7003;67783;51.656;16.106;2024-03-22T15:49:47;2;1;0
77538;PMS7003;67783;51.656;16.106;2024-03-22T15:52:48;1;1;0
77538;PMS7003;67783;51.656;16.106;2024-03-22T15:55:51;1;1;1
77538;PMS7003;67783;51.656;16.106;2024-03-22T15:58:53;1;0;0
77538;PMS7003;67783;51.656;16.106;2024-03-22T16:01:54;2;2;1
77538;PMS7003;67783;51.656;16.106;2024-03-22T16:04:55;1;1;1
77538;PMS7003;67783;51.656;16.106;2024-03-22T16:08:00;1;1;0
77538;PMS7003;67783;51.656;16.106;2024-03-22T16:11:02;2;2;1
77538;PMS7003;67783;51.656;16.106;2024-03-22T16:14:04;3;2;2
77538;PMS7003;67783;51.656;16.106;2024-03-22T16:17:06;4;3;2
77538;PMS7003;67783;51.656;16.106;2024-03-22T16:20:07;3;1;1
77538;PMS7003;67783;51.656;16.106;2024-03-22T16:23:21;4;4;2
77538;PMS7003;67783;51.656;16.106;2024-03-22T16:26:22;2;2;1
77538;PMS7003;67783;51.656;16.106;2024-03-22T16:29:23;5;4;3
77538;PMS7003;67783;51.656;16.106;2024-03-22T16:32:25;3;3;2
77538;PMS7003;67783;51.656;16.106;2024-03-22T16:35:26;8;4;4
77538;PMS7003;67783;51.656;16.106;2024-03-22T16:38:28;7;4;3
77538;PMS7003;67783;51.656;16.106;2024-03-22T16:41:29;2;2;2
77538;PMS7003;67783;51.656;16.106;2024-03-22T16:44:35;6;6;5
77538;PMS7003;67783;51.656;16.106;2024-03-22T16:47:38;6;6;5
77538;PMS7003;67783;51.656;16.106;2024-03-22T16:50:41;6;5;4
77538;PMS7003;67783;51.656;16.106;2024-03-22T16:53:47;9;8;5
77538;PMS7003;67783;51.656;16.106;2024-03-22T16:56:48;12;7;4
77538;PMS7003;67783;51.656;16.106;2024-03-22T16:59:56;9;4;3
77538;PMS7003;67783;51.656;16.106;2024-03-22T17:02:57;6;6;4
77538;PMS7003;67783;51.656;16.106;2024-03-22T17:05:59;14;13;7
77538;PMS7003;67783;51.656;16.106;2024-03-22T17:09:00;23;14;8
77538;PMS7003;67783;51.656;16.106;2024-03-22T17:12:03;16;13;8
77538;PMS7003;67783;51.656;16.106;2024-03-22T17:15:16;17;12;8
77538;PMS7003;67783;51.656;16.106;2024-03-22T17:18:22;12;11;8
77538;PMS7003;67783;51.656;16.106;2024-03-22T17:21:24;15;11;8
77538;PMS7003;67783;51.656;16.106;2024-03-22T17:24:25;10;10;7
77538;PMS7003;67783;51.656;16.106;2024-03-22T17:27:28;11;9;7
77538;PMS7003;67783;51.656;16.106;2024-03-22T17:30:37;8;7;6
77538;PMS7003;67783;51.656;16.106;2024-03-22T17:33:38;11;6;5
77538;PMS7003;67783;51.656;16.106;2024-03-22T17:36:40;12;11;8
77538;PMS7003;67783;51.656;16.106;2024-03-22T17:39:41;11;11;7
77538;PMS7003;67783;51.656;16.106;2024-03-22T17:42:43;13;11;8
77538;PMS7003;67783;51.656;16.106;2024-03-22T17:45:54;14;10;5
77538;PMS7003;67783;51.656;16.106;2024-03-22T17:48:57;8;8;5
77538;PMS7003;67783;51.656;16.106;2024-03-22T17:52:02;13;8;6
77538;PMS7003;67783;51.656;16.106;2024-03-22T17:55:03;8;8;5
77538;PMS7003;67783;51.656;16.106;2024-03-22T17:58:05;9;7;4
77538;PMS7003;67783;51.656;16.106;2024-03-22T18:01:07;9;8;4
77538;PMS7003;67783;51.656;16.106;2024-03-22T18:04:08;7;7;4
77538;PMS7003;67783;51.656;16.106;2024-03-22T18:07:22;5;4;4
77538;PMS7003;67783;51.656;16.106;2024-03-22T18:10:24;6;5;4
77538;PMS7003;67783;51.656;16.106;2024-03-22T18:13:25;7;6;4
77538;PMS7003;67783;51.656;16.106;2024-03-22T18:16:28;12;10;6
77538;PMS7003;67783;51.656;16.106;2024-03-22T18:19:32;19;14;9
77538;PMS7003;67783;51.656;16.106;2024-03-22T18:22:43;8;8;6
77538;PMS7003;67783;51.656;16.106;2024-03-22T18:25:45;12;8;5
77538;PMS7003;67783;51.656;16.106;2024-03-22T18:28:50;9;8;6
77538;PMS7003;67783;51.656;16.106;2024-03-22T18:31:51;8;6;5
77538;PMS7003;67783;51.656;16.106;2024-03-22T18:34:53;6;6;5
77538;PMS7003;67783;51.656;16.106;2024-03-22T18:38:03;4;4;4
77538;PMS7003;67783;51.656;16.106;2024-03-22T18:41:05;11;8;5
77538;PMS7003;67783;51.656;16.106;2024-03-22T18:44:07;5;5;3
77538;PMS7003;67783;51.656;16.106;2024-03-22T18:47:08;8;6;3
77538;PMS7003;67783;51.656;16.106;2024-03-22T18:50:13;5;1;1
77538;PMS7003;67783;51.656;16.106;2024-03-22T18:53:24;5;5;4
77538;PMS7003;67783;51.656;16.106;2024-03-22T18:56:26;7;5;4
77538;PMS7003;67783;51.656;16.106;2024-03-22T18:59:27;4;4;2
77538;PMS7003;67783;51.656;16.106;2024-03-22T19:02:29;10;6;4
77538;PMS7003;67783;51.656;16.106;2024-03-22T19:05:30;7;7;5
77538;PMS7003;67783;51.656;16.106;2024-03-22T19:08:32;5;5;4
77538;PMS7003;67783;51.656;16.106;2024-03-22T19:11:33;7;5;4
77538;PMS7003;67783;51.656;16.106;2024-03-22T19:14:38;9;7;6
77538;PMS7003;67783;51.656;16.106;2024-03-22T19:17:40;11;7;4
77538;PMS7003;67783;51.656;16.106;2024-03-22T19:20:44;9;7;5
77538;PMS7003;67783;51.656;16.106;2024-03-22T19:23:45;8;7;5
77538;PMS7003;67783;51.656;16.106;2024-03-22T19:26:47;5;5;3
77538;PMS7003;67783;51.656;16.106;2024-03-22T19:29:48;8;4;3
77538;PMS7003;67783;51.656;16.106;2024-03-22T19:32:49;5;5;3
77538;PMS7003;67783;51.656;16.106;2024-03-22T19:35:54;5;5;3
77538;PMS7003;67783;51.656;16.106;2024-03-22T19:39:00;8;5;5
77538;PMS7003;67783;51.656;16.106;2024-03-22T19:42:06;7;6;5
77538;PMS7003;67783;51.656;16.106;2024-03-22T19:45:08;8;7;5
77538;PMS7003;67783;51.656;16.106;2024-03-22T19:48:10;13;8;5
77538;PMS7003;67783;51.656;16.106;2024-03-22T19:51:15;9;8;5
77538;PMS7003;67783;51.656;16.106;2024-03-22T19:54:17;7;6;5
77538;PMS7003;67783;51.656;16.106;2024-03-22T19:57:19;7;5;4
77538;PMS7003;67783;51.656;16.106;2024-03-22T20:00:21;7;5;5
77538;PMS7003;67783;51.656;16.106;2024-03-22T20:03:22;7;6;4
77538;PMS7003;67783;51.656;16.106;2024-03-22T20:06:24;6;5;3
77538;PMS7003;67783;51.656;16.106;2024-03-22T20:09:25;13;7;4
77538;PMS7003;67783;51.656;16.106;2024-03-22T20:12:39;10;9;5
77538;PMS7003;67783;51.656;16.106;2024-03-22T20:15:40;7;6;4